This is the latest recevied weather packets stored in our database for station/object KB4JHU-15. If no packets are shown the sender has not sent any weather packets the latest 10 day(s).
| Time | Temp. | Humidity | Pressure | Rain* | Wind** | Luminosity | Snow |
|---|---|---|---|---|---|---|---|
| 1787923293 | 22.78° C | 87% | - | 0 mm | - | - | - |
| 1787921492 | 21.67° C | 94% | - | 0 mm | - | - | - |
| 1787919691 | 21.11° C | 98% | - | 0 mm | - | - | - |
| 1787917890 | 20° C | 97% | - | 0 mm | - | - | - |
| 1787916089 | 20° C | 96% | - | 0 mm | - | - | - |
| 1787914288 | 20° C | 96% | - | 0 mm | - | - | - |
| 1787912487 | 20° C | 95% | - | 0 mm | - | - | - |
| 1787910686 | 20° C | 95% | - | 0 mm | - | - | - |
| 1787908885 | 20° C | 95% | - | 0 mm | - | - | - |
| 1787907084 | 20.56° C | 95% | - | 0 mm | - | - | - |
| 1787905283 | 20.56° C | 95% | - | 0 mm | - | - | - |
| 1787903482 | 21.11° C | 94% | - | 0 mm | - | - | - |
| 1787901681 | 21.11° C | 94% | - | 0 mm | - | - | - |
| 1787899880 | 21.11° C | 94% | - | 0 mm | - | - | - |
| 1787898079 | 21.11° C | 94% | - | 0 mm | - | - | - |
| 1787896278 | 21.67° C | 91% | - | 0 mm | - | - | - |
| 1787894477 | 21.67° C | 91% | - | 0 mm | - | - | - |
| 1787892676 | 22.78° C | 90% | - | 0 mm | - | - | - |
| 1787890875 | 23.33° C | 87% | - | 0 mm | - | - | - |
| 1787889074 | 23.33° C | 85% | - | 0 mm | - | - | - |
| 1787887273 | 22.78° C | 87% | - | 0 mm | - | - | - |
| 1787885472 | 23.33° C | 86% | - | 0 mm | - | - | - |
| 1787883671 | 23.89° C | 83% | - | 0 mm | - | - | - |
| 1787881870 | 25° C | 79% | - | 0 mm | - | - | - |
| 1787880069 | 26.11° C | 75% | - | 0 mm | - | - | - |
* Rain latest hour (hover to see other rain measurements)
** Current wind speed in m/s (hover to see current wind gust speed)